sensor_id;sensor_type;location;lat;lon;timestamp;P1;durP1;ratioP1;P2;durP2;ratioP2
24897;SDS011;12957;49.434;8.684;2023-04-06T00:01:51;9.60;;;5.63;;
24897;SDS011;12957;49.434;8.684;2023-04-06T00:04:16;9.07;;;5.07;;
24897;SDS011;12957;49.434;8.684;2023-04-06T00:06:42;10.47;;;5.33;;
24897;SDS011;12957;49.434;8.684;2023-04-06T00:09:07;9.27;;;5.70;;
24897;SDS011;12957;49.434;8.684;2023-04-06T00:11:33;9.97;;;5.40;;
24897;SDS011;12957;49.434;8.684;2023-04-06T00:13:59;9.10;;;5.33;;
24897;SDS011;12957;49.434;8.684;2023-04-06T00:16:25;11.70;;;5.83;;
24897;SDS011;12957;49.434;8.684;2023-04-06T00:18:50;9.47;;;5.60;;
24897;SDS011;12957;49.434;8.684;2023-04-06T00:21:16;7.67;;;5.27;;
24897;SDS011;12957;49.434;8.684;2023-04-06T00:23:41;12.70;;;5.70;;
24897;SDS011;12957;49.434;8.684;2023-04-06T00:26:08;7.83;;;4.97;;
24897;SDS011;12957;49.434;8.684;2023-04-06T00:28:33;8.53;;;5.57;;
24897;SDS011;12957;49.434;8.684;2023-04-06T00:30:59;9.20;;;5.37;;
24897;SDS011;12957;49.434;8.684;2023-04-06T00:33:24;8.60;;;5.10;;
24897;SDS011;12957;49.434;8.684;2023-04-06T00:35:50;7.73;;;5.07;;
24897;SDS011;12957;49.434;8.684;2023-04-06T00:38:16;7.30;;;4.70;;
24897;SDS011;12957;49.434;8.684;2023-04-06T00:40:42;9.13;;;5.53;;
24897;SDS011;12957;49.434;8.684;2023-04-06T00:43:09;8.90;;;5.30;;
24897;SDS011;12957;49.434;8.684;2023-04-06T00:45:37;10.80;;;5.50;;
24897;SDS011;12957;49.434;8.684;2023-04-06T00:48:03;9.10;;;5.53;;
24897;SDS011;12957;49.434;8.684;2023-04-06T00:50:28;7.97;;;5.67;;
24897;SDS011;12957;49.434;8.684;2023-04-06T00:52:54;8.60;;;5.33;;
24897;SDS011;12957;49.434;8.684;2023-04-06T00:55:20;6.10;;;4.43;;
24897;SDS011;12957;49.434;8.684;2023-04-06T00:57:45;10.53;;;5.60;;
24897;SDS011;12957;49.434;8.684;2023-04-06T01:00:12;11.13;;;5.20;;
24897;SDS011;12957;49.434;8.684;2023-04-06T01:02:38;7.67;;;5.23;;
24897;SDS011;12957;49.434;8.684;2023-04-06T01:05:04;8.17;;;5.20;;
24897;SDS011;12957;49.434;8.684;2023-04-06T01:07:29;7.70;;;5.03;;
24897;SDS011;12957;49.434;8.684;2023-04-06T01:09:55;7.23;;;4.70;;
24897;SDS011;12957;49.434;8.684;2023-04-06T01:12:20;9.33;;;5.13;;
24897;SDS011;12957;49.434;8.684;2023-04-06T01:14:46;7.23;;;4.83;;
24897;SDS011;12957;49.434;8.684;2023-04-06T01:17:12;10.17;;;5.10;;
24897;SDS011;12957;49.434;8.684;2023-04-06T01:19:37;13.53;;;4.90;;
24897;SDS011;12957;49.434;8.684;2023-04-06T01:22:03;10.43;;;5.50;;
24897;SDS011;12957;49.434;8.684;2023-04-06T01:24:28;6.57;;;5.20;;
24897;SDS011;12957;49.434;8.684;2023-04-06T01:26:54;9.40;;;5.30;;
24897;SDS011;12957;49.434;8.684;2023-04-06T01:29:21;6.83;;;5.00;;
24897;SDS011;12957;49.434;8.684;2023-04-06T01:31:46;6.43;;;4.87;;
24897;SDS011;12957;49.434;8.684;2023-04-06T01:34:12;13.07;;;5.57;;
24897;SDS011;12957;49.434;8.684;2023-04-06T01:36:38;6.33;;;4.70;;
24897;SDS011;12957;49.434;8.684;2023-04-06T01:39:03;7.87;;;5.20;;
24897;SDS011;12957;49.434;8.684;2023-04-06T01:41:29;11.00;;;5.20;;
24897;SDS011;12957;49.434;8.684;2023-04-06T01:43:54;7.67;;;5.37;;
24897;SDS011;12957;49.434;8.684;2023-04-06T01:46:20;8.93;;;5.40;;
24897;SDS011;12957;49.434;8.684;2023-04-06T01:48:45;9.57;;;5.50;;
24897;SDS011;12957;49.434;8.684;2023-04-06T01:51:11;8.57;;;5.53;;
24897;SDS011;12957;49.434;8.684;2023-04-06T01:53:36;8.43;;;5.47;;
24897;SDS011;12957;49.434;8.684;2023-04-06T01:56:02;7.30;;;5.47;;
24897;SDS011;12957;49.434;8.684;2023-04-06T01:58:28;11.30;;;5.77;;
24897;SDS011;12957;49.434;8.684;2023-04-06T02:00:53;10.87;;;5.57;;
24897;SDS011;12957;49.434;8.684;2023-04-06T02:03:19;9.40;;;5.77;;
24897;SDS011;12957;49.434;8.684;2023-04-06T02:05:45;8.43;;;5.93;;
24897;SDS011;12957;49.434;8.684;2023-04-06T02:08:10;11.13;;;5.97;;
24897;SDS011;12957;49.434;8.684;2023-04-06T02:10:36;9.00;;;5.67;;
24897;SDS011;12957;49.434;8.684;2023-04-06T02:13:01;11.03;;;6.37;;
24897;SDS011;12957;49.434;8.684;2023-04-06T02:15:27;9.93;;;6.33;;
24897;SDS011;12957;49.434;8.684;2023-04-06T02:17:52;11.07;;;6.13;;
24897;SDS011;12957;49.434;8.684;2023-04-06T02:20:18;12.23;;;6.50;;
24897;SDS011;12957;49.434;8.684;2023-04-06T02:22:44;10.17;;;6.07;;
24897;SDS011;12957;49.434;8.684;2023-04-06T02:25:09;7.97;;;5.60;;
24897;SDS011;12957;49.434;8.684;2023-04-06T02:27:35;9.20;;;6.20;;
24897;SDS011;12957;49.434;8.684;2023-04-06T02:30:01;7.87;;;5.77;;
24897;SDS011;12957;49.434;8.684;2023-04-06T02:32:30;9.53;;;5.83;;
24897;SDS011;12957;49.434;8.684;2023-04-06T02:34:55;10.47;;;5.67;;
24897;SDS011;12957;49.434;8.684;2023-04-06T02:37:21;9.07;;;5.67;;
24897;SDS011;12957;49.434;8.684;2023-04-06T02:39:49;8.30;;;5.73;;
24897;SDS011;12957;49.434;8.684;2023-04-06T02:42:14;11.97;;;6.00;;
24897;SDS011;12957;49.434;8.684;2023-04-06T02:44:41;12.83;;;5.17;;
24897;SDS011;12957;49.434;8.684;2023-04-06T02:47:06;11.80;;;5.60;;
24897;SDS011;12957;49.434;8.684;2023-04-06T02:49:32;8.67;;;5.40;;
24897;SDS011;12957;49.434;8.684;2023-04-06T02:51:57;11.17;;;5.93;;
24897;SDS011;12957;49.434;8.684;2023-04-06T02:54:23;10.30;;;5.43;;
24897;SDS011;12957;49.434;8.684;2023-04-06T02:56:48;10.33;;;5.97;;
24897;SDS011;12957;49.434;8.684;2023-04-06T02:59:14;11.73;;;6.33;;
24897;SDS011;12957;49.434;8.684;2023-04-06T03:01:40;11.90;;;6.70;;
24897;SDS011;12957;49.434;8.684;2023-04-06T03:04:05;9.13;;;6.07;;
24897;SDS011;12957;49.434;8.684;2023-04-06T03:06:31;8.23;;;5.53;;
24897;SDS011;12957;49.434;8.684;2023-04-06T03:08:56;8.87;;;5.70;;
24897;SDS011;12957;49.434;8.684;2023-04-06T03:11:22;12.57;;;6.30;;
24897;SDS011;12957;49.434;8.684;2023-04-06T03:13:47;12.43;;;5.67;;
24897;SDS011;12957;49.434;8.684;2023-04-06T03:16:12;10.87;;;5.50;;
24897;SDS011;12957;49.434;8.684;2023-04-06T03:18:38;8.50;;;5.77;;
24897;SDS011;12957;49.434;8.684;2023-04-06T03:21:04;9.60;;;5.67;;
24897;SDS011;12957;49.434;8.684;2023-04-06T03:23:29;9.77;;;5.70;;
24897;SDS011;12957;49.434;8.684;2023-04-06T03:25:55;8.67;;;5.30;;
24897;SDS011;12957;49.434;8.684;2023-04-06T03:28:20;9.50;;;5.83;;
24897;SDS011;12957;49.434;8.684;2023-04-06T03:30:46;7.80;;;5.30;;
24897;SDS011;12957;49.434;8.684;2023-04-06T03:33:11;10.37;;;5.70;;
24897;SDS011;12957;49.434;8.684;2023-04-06T03:35:37;9.53;;;5.40;;
24897;SDS011;12957;49.434;8.684;2023-04-06T03:38:05;8.37;;;5.57;;
24897;SDS011;12957;49.434;8.684;2023-04-06T03:40:30;9.40;;;5.97;;
24897;SDS011;12957;49.434;8.684;2023-04-06T03:42:56;10.00;;;5.90;;
24897;SDS011;12957;49.434;8.684;2023-04-06T03:45:22;11.60;;;6.27;;
24897;SDS011;12957;49.434;8.684;2023-04-06T03:47:47;8.87;;;5.87;;
24897;SDS011;12957;49.434;8.684;2023-04-06T03:50:13;12.03;;;6.00;;
24897;SDS011;12957;49.434;8.684;2023-04-06T03:52:38;9.33;;;6.03;;
24897;SDS011;12957;49.434;8.684;2023-04-06T03:55:04;10.97;;;6.00;;
24897;SDS011;12957;49.434;8.684;2023-04-06T03:57:30;8.33;;;5.70;;
24897;SDS011;12957;49.434;8.684;2023-04-06T03:59:55;10.50;;;6.17;;
24897;SDS011;12957;49.434;8.684;2023-04-06T04:02:21;8.73;;;5.87;;
24897;SDS011;12957;49.434;8.684;2023-04-06T04:04:46;8.77;;;5.63;;
24897;SDS011;12957;49.434;8.684;2023-04-06T04:07:12;7.37;;;5.70;;
24897;SDS011;12957;49.434;8.684;2023-04-06T04:09:37;8.97;;;5.80;;
24897;SDS011;12957;49.434;8.684;2023-04-06T04:12:03;12.23;;;6.53;;
24897;SDS011;12957;49.434;8.684;2023-04-06T04:14:28;10.03;;;5.60;;
24897;SDS011;12957;49.434;8.684;2023-04-06T04:16:54;9.43;;;6.23;;
24897;SDS011;12957;49.434;8.684;2023-04-06T04:19:19;10.83;;;5.97;;
24897;SDS011;12957;49.434;8.684;2023-04-06T04:21:45;10.40;;;5.70;;
24897;SDS011;12957;49.434;8.684;2023-04-06T04:24:11;11.17;;;6.20;;
24897;SDS011;12957;49.434;8.684;2023-04-06T04:26:38;12.40;;;5.80;;
24897;SDS011;12957;49.434;8.684;2023-04-06T04:29:03;10.73;;;5.60;;
24897;SDS011;12957;49.434;8.684;2023-04-06T04:31:29;10.47;;;6.17;;
24897;SDS011;12957;49.434;8.684;2023-04-06T04:33:55;12.97;;;6.93;;
24897;SDS011;12957;49.434;8.684;2023-04-06T04:36:20;8.57;;;6.00;;
24897;SDS011;12957;49.434;8.684;2023-04-06T04:38:46;14.13;;;6.60;;
24897;SDS011;12957;49.434;8.684;2023-04-06T04:41:11;12.37;;;7.13;;
24897;SDS011;12957;49.434;8.684;2023-04-06T04:43:37;13.47;;;7.23;;
24897;SDS011;12957;49.434;8.684;2023-04-06T04:46:03;13.30;;;7.07;;
24897;SDS011;12957;49.434;8.684;2023-04-06T04:48:29;12.13;;;6.90;;
24897;SDS011;12957;49.434;8.684;2023-04-06T04:50:54;12.93;;;7.00;;
24897;SDS011;12957;49.434;8.684;2023-04-06T04:53:20;11.97;;;7.17;;
24897;SDS011;12957;49.434;8.684;2023-04-06T04:55:46;16.67;;;7.20;;
24897;SDS011;12957;49.434;8.684;2023-04-06T04:58:11;12.20;;;7.10;;
24897;SDS011;12957;49.434;8.684;2023-04-06T05:00:41;12.10;;;7.60;;
24897;SDS011;12957;49.434;8.684;2023-04-06T05:03:07;14.47;;;7.00;;
24897;SDS011;12957;49.434;8.684;2023-04-06T05:05:32;11.60;;;7.13;;
24897;SDS011;12957;49.434;8.684;2023-04-06T05:07:58;11.77;;;7.07;;
24897;SDS011;12957;49.434;8.684;2023-04-06T05:10:23;9.53;;;6.43;;
24897;SDS011;12957;49.434;8.684;2023-04-06T05:12:49;13.13;;;6.70;;
24897;SDS011;12957;49.434;8.684;2023-04-06T05:15:15;8.63;;;6.20;;
24897;SDS011;12957;49.434;8.684;2023-04-06T05:17:40;10.67;;;6.50;;
24897;SDS011;12957;49.434;8.684;2023-04-06T05:20:06;9.83;;;6.50;;
24897;SDS011;12957;49.434;8.684;2023-04-06T05:22:32;11.60;;;6.53;;
24897;SDS011;12957;49.434;8.684;2023-04-06T05:24:57;8.07;;;5.67;;
24897;SDS011;12957;49.434;8.684;2023-04-06T05:27:23;8.07;;;5.87;;
24897;SDS011;12957;49.434;8.684;2023-04-06T05:29:48;9.97;;;5.70;;
24897;SDS011;12957;49.434;8.684;2023-04-06T05:32:14;13.00;;;6.77;;
24897;SDS011;12957;49.434;8.684;2023-04-06T05:34:39;11.67;;;5.63;;
24897;SDS011;12957;49.434;8.684;2023-04-06T05:37:05;10.90;;;6.03;;
24897;SDS011;12957;49.434;8.684;2023-04-06T05:39:30;12.60;;;5.90;;
24897;SDS011;12957;49.434;8.684;2023-04-06T05:41:56;11.07;;;5.83;;
24897;SDS011;12957;49.434;8.684;2023-04-06T05:44:21;9.30;;;5.97;;
24897;SDS011;12957;49.434;8.684;2023-04-06T05:46:47;12.07;;;6.07;;
24897;SDS011;12957;49.434;8.684;2023-04-06T05:49:12;9.83;;;5.43;;
24897;SDS011;12957;49.434;8.684;2023-04-06T05:51:38;10.57;;;6.10;;
24897;SDS011;12957;49.434;8.684;2023-04-06T05:54:03;11.03;;;6.20;;
24897;SDS011;12957;49.434;8.684;2023-04-06T05:56:29;9.93;;;6.30;;
24897;SDS011;12957;49.434;8.684;2023-04-06T05:58:55;8.47;;;5.50;;
24897;SDS011;12957;49.434;8.684;2023-04-06T06:01:20;9.10;;;5.63;;
24897;SDS011;12957;49.434;8.684;2023-04-06T06:03:46;10.80;;;5.30;;
24897;SDS011;12957;49.434;8.684;2023-04-06T06:06:11;8.47;;;4.83;;
24897;SDS011;12957;49.434;8.684;2023-04-06T06:08:37;9.87;;;5.70;;
24897;SDS011;12957;49.434;8.684;2023-04-06T06:11:02;7.30;;;5.30;;
24897;SDS011;12957;49.434;8.684;2023-04-06T06:13:28;10.17;;;5.77;;
24897;SDS011;12957;49.434;8.684;2023-04-06T06:15:53;11.77;;;7.23;;
24897;SDS011;12957;49.434;8.684;2023-04-06T06:18:19;8.73;;;5.93;;
24897;SDS011;12957;49.434;8.684;2023-04-06T06:20:45;12.00;;;6.55;;
24897;SDS011;12957;49.434;8.684;2023-04-06T06:23:10;9.57;;;6.40;;
24897;SDS011;12957;49.434;8.684;2023-04-06T06:25:36;9.15;;;6.25;;
24897;SDS011;12957;49.434;8.684;2023-04-06T06:28:01;25.08;;;13.82;;
24897;SDS011;12957;49.434;8.684;2023-04-06T06:30:27;15.50;;;8.38;;
24897;SDS011;12957;49.434;8.684;2023-04-06T06:32:52;17.42;;;9.07;;
24897;SDS011;12957;49.434;8.684;2023-04-06T06:35:18;14.68;;;8.23;;
24897;SDS011;12957;49.434;8.684;2023-04-06T06:37:43;10.15;;;7.35;;
24897;SDS011;12957;49.434;8.684;2023-04-06T06:40:09;11.15;;;6.38;;
24897;SDS011;12957;49.434;8.684;2023-04-06T06:42:38;9.43;;;5.90;;
24897;SDS011;12957;49.434;8.684;2023-04-06T06:45:03;13.75;;;5.75;;
24897;SDS011;12957;49.434;8.684;2023-04-06T06:47:30;8.20;;;5.85;;
24897;SDS011;12957;49.434;8.684;2023-04-06T06:49:55;8.77;;;5.97;;
24897;SDS011;12957;49.434;8.684;2023-04-06T06:52:21;8.55;;;5.72;;
24897;SDS011;12957;49.434;8.684;2023-04-06T06:54:48;8.15;;;6.28;;
24897;SDS011;12957;49.434;8.684;2023-04-06T06:57:13;12.32;;;6.60;;
24897;SDS011;12957;49.434;8.684;2023-04-06T06:59:39;12.85;;;6.40;;
24897;SDS011;12957;49.434;8.684;2023-04-06T07:02:04;9.50;;;6.68;;
24897;SDS011;12957;49.434;8.684;2023-04-06T07:04:30;8.07;;;6.50;;
24897;SDS011;12957;49.434;8.684;2023-04-06T07:06:55;12.45;;;6.30;;
24897;SDS011;12957;49.434;8.684;2023-04-06T07:09:21;9.63;;;6.30;;
24897;SDS011;12957;49.434;8.684;2023-04-06T07:11:47;9.35;;;6.13;;
24897;SDS011;12957;49.434;8.684;2023-04-06T07:14:14;9.73;;;6.38;;
24897;SDS011;12957;49.434;8.684;2023-04-06T07:16:40;8.82;;;6.05;;
24897;SDS011;12957;49.434;8.684;2023-04-06T07:19:06;8.38;;;6.20;;
24897;SDS011;12957;49.434;8.684;2023-04-06T07:21:31;13.27;;;7.65;;
24897;SDS011;12957;49.434;8.684;2023-04-06T07:23:57;11.75;;;6.90;;
24897;SDS011;12957;49.434;8.684;2023-04-06T07:26:22;8.90;;;6.30;;
24897;SDS011;12957;49.434;8.684;2023-04-06T07:28:48;8.77;;;6.28;;
24897;SDS011;12957;49.434;8.684;2023-04-06T07:31:13;9.60;;;6.05;;
24897;SDS011;12957;49.434;8.684;2023-04-06T07:33:39;11.52;;;6.80;;
24897;SDS011;12957;49.434;8.684;2023-04-06T07:36:05;13.07;;;6.97;;
24897;SDS011;12957;49.434;8.684;2023-04-06T07:38:30;15.07;;;7.57;;
24897;SDS011;12957;49.434;8.684;2023-04-06T07:40:56;9.75;;;6.55;;
24897;SDS011;12957;49.434;8.684;2023-04-06T07:43:21;8.07;;;6.40;;
24897;SDS011;12957;49.434;8.684;2023-04-06T07:45:47;14.98;;;7.07;;
24897;SDS011;12957;49.434;8.684;2023-04-06T07:48:12;10.30;;;7.13;;
24897;SDS011;12957;49.434;8.684;2023-04-06T07:50:38;12.35;;;7.00;;
24897;SDS011;12957;49.434;8.684;2023-04-06T07:53:04;12.70;;;7.13;;
24897;SDS011;12957;49.434;8.684;2023-04-06T07:55:30;8.90;;;6.57;;
24897;SDS011;12957;49.434;8.684;2023-04-06T07:57:55;13.75;;;6.72;;
24897;SDS011;12957;49.434;8.684;2023-04-06T08:00:21;11.13;;;6.85;;
24897;SDS011;12957;49.434;8.684;2023-04-06T08:02:46;12.02;;;6.93;;
24897;SDS011;12957;49.434;8.684;2023-04-06T08:05:12;11.85;;;7.03;;
24897;SDS011;12957;49.434;8.684;2023-04-06T08:07:37;11.10;;;6.75;;
24897;SDS011;12957;49.434;8.684;2023-04-06T08:10:03;9.82;;;7.05;;
24897;SDS011;12957;49.434;8.684;2023-04-06T08:12:29;10.50;;;6.75;;
24897;SDS011;12957;49.434;8.684;2023-04-06T08:14:54;16.85;;;7.30;;
24897;SDS011;12957;49.434;8.684;2023-04-06T08:17:21;11.15;;;7.40;;
24897;SDS011;12957;49.434;8.684;2023-04-06T08:19:47;9.30;;;6.95;;
24897;SDS011;12957;49.434;8.684;2023-04-06T08:22:12;12.13;;;7.38;;
24897;SDS011;12957;49.434;8.684;2023-04-06T08:24:38;10.75;;;7.28;;
24897;SDS011;12957;49.434;8.684;2023-04-06T08:27:03;13.40;;;7.15;;
24897;SDS011;12957;49.434;8.684;2023-04-06T08:29:29;10.40;;;6.90;;
24897;SDS011;12957;49.434;8.684;2023-04-06T08:31:55;12.63;;;7.65;;
24897;SDS011;12957;49.434;8.684;2023-04-06T08:34:21;9.25;;;7.07;;
24897;SDS011;12957;49.434;8.684;2023-04-06T08:36:46;12.85;;;6.95;;
24897;SDS011;12957;49.434;8.684;2023-04-06T08:39:12;10.02;;;7.07;;
24897;SDS011;12957;49.434;8.684;2023-04-06T08:41:37;12.45;;;7.25;;
24897;SDS011;12957;49.434;8.684;2023-04-06T08:44:03;7.95;;;6.47;;
24897;SDS011;12957;49.434;8.684;2023-04-06T08:46:30;13.43;;;7.15;;
24897;SDS011;12957;49.434;8.684;2023-04-06T08:48:59;7.93;;;6.40;;
24897;SDS011;12957;49.434;8.684;2023-04-06T08:51:26;13.48;;;7.30;;
24897;SDS011;12957;49.434;8.684;2023-04-06T08:53:52;8.25;;;6.38;;
24897;SDS011;12957;49.434;8.684;2023-04-06T08:56:21;12.20;;;6.75;;
24897;SDS011;12957;49.434;8.684;2023-04-06T08:58:48;11.25;;;6.15;;
24897;SDS011;12957;49.434;8.684;2023-04-06T09:01:14;10.50;;;6.35;;
24897;SDS011;12957;49.434;8.684;2023-04-06T09:03:40;10.55;;;6.20;;
24897;SDS011;12957;49.434;8.684;2023-04-06T09:06:06;7.95;;;5.90;;
24897;SDS011;12957;49.434;8.684;2023-04-06T09:08:35;9.88;;;6.18;;
24897;SDS011;12957;49.434;8.684;2023-04-06T09:11:03;7.47;;;6.63;;
24897;SDS011;12957;49.434;8.684;2023-04-06T09:13:28;8.65;;;6.25;;
24897;SDS011;12957;49.434;8.684;2023-04-06T09:15:58;10.35;;;6.93;;
24897;SDS011;12957;49.434;8.684;2023-04-06T09:18:28;28.10;;;7.28;;
24897;SDS011;12957;49.434;8.684;2023-04-06T09:21:02;11.38;;;6.82;;
24897;SDS011;12957;49.434;8.684;2023-04-06T09:23:30;8.45;;;6.63;;
24897;SDS011;12957;49.434;8.684;2023-04-06T09:26:12;8.75;;;6.25;;
24897;SDS011;12957;49.434;8.684;2023-04-06T09:28:46;13.85;;;6.80;;
24897;SDS011;12957;49.434;8.684;2023-04-06T09:31:21;10.65;;;6.50;;
24897;SDS011;12957;49.434;8.684;2023-04-06T09:33:48;10.35;;;6.95;;
24897;SDS011;12957;49.434;8.684;2023-04-06T09:36:13;8.55;;;6.75;;
24897;SDS011;12957;49.434;8.684;2023-04-06T09:38:54;17.48;;;7.03;;
24897;SDS011;12957;49.434;8.684;2023-04-06T09:41:30;8.38;;;5.97;;
24897;SDS011;12957;49.434;8.684;2023-04-06T09:44:03;7.35;;;5.70;;
24897;SDS011;12957;49.434;8.684;2023-04-06T09:46:31;10.13;;;6.55;;
24897;SDS011;12957;49.434;8.684;2023-04-06T09:48:59;9.25;;;6.20;;
24897;SDS011;12957;49.434;8.684;2023-04-06T09:51:26;9.05;;;5.97;;
24897;SDS011;12957;49.434;8.684;2023-04-06T09:53:52;13.90;;;6.40;;
24897;SDS011;12957;49.434;8.684;2023-04-06T09:56:20;12.55;;;6.10;;
24897;SDS011;12957;49.434;8.684;2023-04-06T09:58:49;8.90;;;5.50;;
24897;SDS011;12957;49.434;8.684;2023-04-06T10:01:18;10.18;;;6.28;;
24897;SDS011;12957;49.434;8.684;2023-04-06T10:03:56;11.02;;;6.90;;
24897;SDS011;12957;49.434;8.684;2023-04-06T10:06:24;9.38;;;5.93;;
24897;SDS011;12957;49.434;8.684;2023-04-06T10:08:52;7.82;;;5.70;;
24897;SDS011;12957;49.434;8.684;2023-04-06T10:11:19;8.25;;;5.95;;
24897;SDS011;12957;49.434;8.684;2023-04-06T10:13:45;7.78;;;5.43;;
24897;SDS011;12957;49.434;8.684;2023-04-06T10:16:14;10.82;;;6.30;;
24897;SDS011;12957;49.434;8.684;2023-04-06T10:18:40;8.85;;;6.05;;
24897;SDS011;12957;49.434;8.684;2023-04-06T10:21:09;7.75;;;6.32;;
24897;SDS011;12957;49.434;8.684;2023-04-06T10:26:17;8.55;;;6.30;;
24897;SDS011;12957;49.434;8.684;2023-04-06T10:28:45;12.57;;;6.78;;
24897;SDS011;12957;49.434;8.684;2023-04-06T10:31:11;9.50;;;6.05;;
24897;SDS011;12957;49.434;8.684;2023-04-06T10:33:37;10.23;;;5.80;;
24897;SDS011;12957;49.434;8.684;2023-04-06T10:36:21;10.27;;;6.32;;
24897;SDS011;12957;49.434;8.684;2023-04-06T10:38:53;9.80;;;6.20;;
24897;SDS011;12957;49.434;8.684;2023-04-06T10:41:19;12.90;;;6.57;;
24897;SDS011;12957;49.434;8.684;2023-04-06T10:43:45;12.57;;;5.97;;
24897;SDS011;12957;49.434;8.684;2023-04-06T10:46:24;7.53;;;5.97;;
24897;SDS011;12957;49.434;8.684;2023-04-06T10:48:50;7.30;;;5.60;;
24897;SDS011;12957;49.434;8.684;2023-04-06T10:51:16;9.93;;;6.28;;
24897;SDS011;12957;49.434;8.684;2023-04-06T10:53:46;7.05;;;5.72;;
24897;SDS011;12957;49.434;8.684;2023-04-06T10:56:13;9.05;;;6.18;;
24897;SDS011;12957;49.434;8.684;2023-04-06T11:01:17;10.55;;;5.80;;
24897;SDS011;12957;49.434;8.684;2023-04-06T11:06:10;9.10;;;5.68;;
24897;SDS011;12957;49.434;8.684;2023-04-06T11:08:35;7.32;;;5.10;;
24897;SDS011;12957;49.434;8.684;2023-04-06T11:11:09;12.18;;;5.80;;
24897;SDS011;12957;49.434;8.684;2023-04-06T11:13:46;7.75;;;5.70;;
24897;SDS011;12957;49.434;8.684;2023-04-06T11:16:18;6.68;;;5.15;;
24897;SDS011;12957;49.434;8.684;2023-04-06T11:21:31;6.68;;;4.85;;
24897;SDS011;12957;49.434;8.684;2023-04-06T11:26:46;7.78;;;4.85;;
24897;SDS011;12957;49.434;8.684;2023-04-06T11:29:14;5.93;;;4.82;;
24897;SDS011;12957;49.434;8.684;2023-04-06T11:31:42;6.88;;;4.70;;
24897;SDS011;12957;49.434;8.684;2023-04-06T11:34:16;6.18;;;4.47;;
24897;SDS011;12957;49.434;8.684;2023-04-06T11:36:43;8.30;;;4.97;;
24897;SDS011;12957;49.434;8.684;2023-04-06T11:39:09;6.60;;;5.00;;
24897;SDS011;12957;49.434;8.684;2023-04-06T11:41:35;9.13;;;5.15;;
24897;SDS011;12957;49.434;8.684;2023-04-06T11:44:01;7.90;;;5.03;;
24897;SDS011;12957;49.434;8.684;2023-04-06T11:46:30;6.30;;;5.00;;
24897;SDS011;12957;49.434;8.684;2023-04-06T11:48:59;8.13;;;5.57;;
24897;SDS011;12957;49.434;8.684;2023-04-06T11:51:25;7.03;;;5.00;;
24897;SDS011;12957;49.434;8.684;2023-04-06T11:53:51;5.03;;;4.53;;
24897;SDS011;12957;49.434;8.684;2023-04-06T11:56:29;7.15;;;5.43;;
24897;SDS011;12957;49.434;8.684;2023-04-06T11:58:55;8.52;;;5.30;;
24897;SDS011;12957;49.434;8.684;2023-04-06T12:01:22;8.23;;;5.00;;
24897;SDS011;12957;49.434;8.684;2023-04-06T12:03:48;9.40;;;5.90;;
24897;SDS011;12957;49.434;8.684;2023-04-06T12:06:14;11.18;;;6.88;;
24897;SDS011;12957;49.434;8.684;2023-04-06T12:08:40;12.13;;;6.22;;
24897;SDS011;12957;49.434;8.684;2023-04-06T12:11:06;7.97;;;5.35;;
24897;SDS011;12957;49.434;8.684;2023-04-06T12:13:31;8.07;;;5.65;;
24897;SDS011;12957;49.434;8.684;2023-04-06T12:15:57;13.02;;;6.03;;
24897;SDS011;12957;49.434;8.684;2023-04-06T12:18:22;9.25;;;6.10;;
24897;SDS011;12957;49.434;8.684;2023-04-06T12:20:48;10.25;;;6.55;;
24897;SDS011;12957;49.434;8.684;2023-04-06T12:23:13;8.65;;;6.32;;
24897;SDS011;12957;49.434;8.684;2023-04-06T12:25:42;8.60;;;6.18;;
24897;SDS011;12957;49.434;8.684;2023-04-06T12:28:07;9.80;;;5.85;;
24897;SDS011;12957;49.434;8.684;2023-04-06T12:30:36;8.27;;;5.95;;
24897;SDS011;12957;49.434;8.684;2023-04-06T12:33:02;10.23;;;5.70;;
24897;SDS011;12957;49.434;8.684;2023-04-06T12:35:27;10.38;;;6.22;;
24897;SDS011;12957;49.434;8.684;2023-04-06T12:37:53;10.82;;;6.72;;
24897;SDS011;12957;49.434;8.684;2023-04-06T12:40:19;11.13;;;6.15;;
24897;SDS011;12957;49.434;8.684;2023-04-06T12:42:44;12.13;;;6.30;;
24897;SDS011;12957;49.434;8.684;2023-04-06T12:45:11;10.82;;;6.40;;
24897;SDS011;12957;49.434;8.684;2023-04-06T12:47:37;10.32;;;6.47;;
24897;SDS011;12957;49.434;8.684;2023-04-06T12:50:04;9.70;;;6.22;;
24897;SDS011;12957;49.434;8.684;2023-04-06T12:52:31;9.45;;;6.47;;
24897;SDS011;12957;49.434;8.684;2023-04-06T12:54:57;9.73;;;6.50;;
24897;SDS011;12957;49.434;8.684;2023-04-06T12:57:24;8.93;;;6.00;;
24897;SDS011;12957;49.434;8.684;2023-04-06T12:59:50;8.55;;;6.28;;
24897;SDS011;12957;49.434;8.684;2023-04-06T13:02:16;8.32;;;6.45;;
24897;SDS011;12957;49.434;8.684;2023-04-06T13:04:42;8.43;;;6.07;;
24897;SDS011;12957;49.434;8.684;2023-04-06T13:07:07;8.20;;;6.50;;
24897;SDS011;12957;49.434;8.684;2023-04-06T13:09:33;11.93;;;6.45;;
24897;SDS011;12957;49.434;8.684;2023-04-06T13:11:58;10.57;;;6.18;;
24897;SDS011;12957;49.434;8.684;2023-04-06T13:14:24;9.43;;;6.57;;
24897;SDS011;12957;49.434;8.684;2023-04-06T13:16:50;10.35;;;7.00;;
24897;SDS011;12957;49.434;8.684;2023-04-06T13:19:16;8.50;;;6.50;;
24897;SDS011;12957;49.434;8.684;2023-04-06T13:21:43;11.90;;;5.65;;
24897;SDS011;12957;49.434;8.684;2023-04-06T13:24:08;7.63;;;6.00;;
24897;SDS011;12957;49.434;8.684;2023-04-06T13:26:34;8.15;;;5.88;;
24897;SDS011;12957;49.434;8.684;2023-04-06T13:29:00;11.23;;;6.70;;
24897;SDS011;12957;49.434;8.684;2023-04-06T13:31:27;9.60;;;6.13;;
24897;SDS011;12957;49.434;8.684;2023-04-06T13:33:53;9.45;;;6.20;;
24897;SDS011;12957;49.434;8.684;2023-04-06T13:36:18;12.18;;;6.95;;
24897;SDS011;12957;49.434;8.684;2023-04-06T13:38:44;10.75;;;6.55;;
24897;SDS011;12957;49.434;8.684;2023-04-06T13:41:17;10.25;;;6.47;;
24897;SDS011;12957;49.434;8.684;2023-04-06T13:43:43;9.70;;;5.57;;
24897;SDS011;12957;49.434;8.684;2023-04-06T13:46:09;8.63;;;5.80;;
24897;SDS011;12957;49.434;8.684;2023-04-06T13:48:35;7.32;;;5.75;;
24897;SDS011;12957;49.434;8.684;2023-04-06T13:51:10;8.82;;;6.40;;
24897;SDS011;12957;49.434;8.684;2023-04-06T13:53:37;8.32;;;6.53;;
24897;SDS011;12957;49.434;8.684;2023-04-06T13:56:02;9.90;;;7.03;;
24897;SDS011;12957;49.434;8.684;2023-04-06T13:58:28;10.98;;;6.57;;
24897;SDS011;12957;49.434;8.684;2023-04-06T14:00:53;10.85;;;6.53;;
24897;SDS011;12957;49.434;8.684;2023-04-06T14:03:19;9.65;;;6.32;;
24897;SDS011;12957;49.434;8.684;2023-04-06T14:05:45;10.40;;;6.47;;
24897;SDS011;12957;49.434;8.684;2023-04-06T14:08:10;7.05;;;5.90;;
24897;SDS011;12957;49.434;8.684;2023-04-06T14:10:37;8.77;;;6.15;;
24897;SDS011;12957;49.434;8.684;2023-04-06T14:13:06;12.43;;;6.35;;
24897;SDS011;12957;49.434;8.684;2023-04-06T14:15:31;9.20;;;6.45;;
24897;SDS011;12957;49.434;8.684;2023-04-06T14:17:57;8.55;;;5.70;;
24897;SDS011;12957;49.434;8.684;2023-04-06T14:20:22;10.20;;;6.07;;
24897;SDS011;12957;49.434;8.684;2023-04-06T14:22:48;9.02;;;6.15;;
24897;SDS011;12957;49.434;8.684;2023-04-06T14:25:14;9.60;;;6.40;;
24897;SDS011;12957;49.434;8.684;2023-04-06T14:27:41;9.95;;;6.20;;
24897;SDS011;12957;49.434;8.684;2023-04-06T14:30:07;10.38;;;6.43;;
24897;SDS011;12957;49.434;8.684;2023-04-06T14:32:33;8.25;;;6.00;;
24897;SDS011;12957;49.434;8.684;2023-04-06T14:34:59;13.65;;;6.18;;
24897;SDS011;12957;49.434;8.684;2023-04-06T14:37:25;12.68;;;6.88;;
24897;SDS011;12957;49.434;8.684;2023-04-06T14:39:51;11.10;;;6.60;;
24897;SDS011;12957;49.434;8.684;2023-04-06T14:42:16;12.50;;;7.22;;
24897;SDS011;12957;49.434;8.684;2023-04-06T14:44:42;11.02;;;5.75;;
24897;SDS011;12957;49.434;8.684;2023-04-06T14:47:09;10.23;;;6.20;;
24897;SDS011;12957;49.434;8.684;2023-04-06T14:49:35;14.07;;;6.50;;